sensor_id;sensor_type;location;lat;lon;timestamp;P1;durP1;ratioP1;P2;durP2;ratioP2
5995;SDS011;3026;53.612;7.278;2023-06-22T00:01:15;9.07;;;8.17;;
5995;SDS011;3026;53.612;7.278;2023-06-22T00:03:44;14.20;;;8.40;;
5995;SDS011;3026;53.612;7.278;2023-06-22T00:06:10;10.97;;;7.93;;
5995;SDS011;3026;53.612;7.278;2023-06-22T00:08:37;11.53;;;8.80;;
5995;SDS011;3026;53.612;7.278;2023-06-22T00:11:04;13.43;;;9.27;;
5995;SDS011;3026;53.612;7.278;2023-06-22T00:13:31;10.33;;;8.57;;
5995;SDS011;3026;53.612;7.278;2023-06-22T00:15:57;11.10;;;8.37;;
5995;SDS011;3026;53.612;7.278;2023-06-22T00:18:24;12.07;;;9.10;;
5995;SDS011;3026;53.612;7.278;2023-06-22T00:20:54;11.43;;;8.80;;
5995;SDS011;3026;53.612;7.278;2023-06-22T00:23:23;9.87;;;8.10;;
5995;SDS011;3026;53.612;7.278;2023-06-22T00:25:51;10.10;;;8.63;;
5995;SDS011;3026;53.612;7.278;2023-06-22T00:28:18;12.00;;;9.30;;
5995;SDS011;3026;53.612;7.278;2023-06-22T00:30:44;9.70;;;8.53;;
5995;SDS011;3026;53.612;7.278;2023-06-22T00:33:12;11.10;;;9.10;;
5995;SDS011;3026;53.612;7.278;2023-06-22T00:35:41;11.93;;;8.80;;
5995;SDS011;3026;53.612;7.278;2023-06-22T00:38:11;12.33;;;9.40;;
5995;SDS011;3026;53.612;7.278;2023-06-22T00:40:38;10.13;;;8.30;;
5995;SDS011;3026;53.612;7.278;2023-06-22T00:43:05;9.07;;;8.17;;
5995;SDS011;3026;53.612;7.278;2023-06-22T00:45:32;10.50;;;9.37;;
5995;SDS011;3026;53.612;7.278;2023-06-22T00:47:59;10.27;;;9.17;;
5995;SDS011;3026;53.612;7.278;2023-06-22T00:50:26;11.30;;;8.93;;
5995;SDS011;3026;53.612;7.278;2023-06-22T00:52:59;12.20;;;10.07;;
5995;SDS011;3026;53.612;7.278;2023-06-22T00:55:34;11.90;;;9.90;;
5995;SDS011;3026;53.612;7.278;2023-06-22T00:58:04;10.37;;;9.27;;
5995;SDS011;3026;53.612;7.278;2023-06-22T01:00:33;11.77;;;10.03;;
5995;SDS011;3026;53.612;7.278;2023-06-22T01:03:01;12.40;;;10.50;;
5995;SDS011;3026;53.612;7.278;2023-06-22T01:05:28;11.53;;;10.33;;
5995;SDS011;3026;53.612;7.278;2023-06-22T01:07:59;15.70;;;12.43;;
5995;SDS011;3026;53.612;7.278;2023-06-22T01:10:34;15.80;;;11.30;;
5995;SDS011;3026;53.612;7.278;2023-06-22T01:13:09;15.40;;;11.80;;
5995;SDS011;3026;53.612;7.278;2023-06-22T01:15:55;16.03;;;11.50;;
5995;SDS011;3026;53.612;7.278;2023-06-22T01:18:26;13.63;;;12.20;;
5995;SDS011;3026;53.612;7.278;2023-06-22T01:20:56;13.93;;;12.43;;
5995;SDS011;3026;53.612;7.278;2023-06-22T01:23:26;15.43;;;11.70;;
5995;SDS011;3026;53.612;7.278;2023-06-22T01:26:02;15.90;;;12.20;;
5995;SDS011;3026;53.612;7.278;2023-06-22T01:28:46;16.10;;;12.03;;
5995;SDS011;3026;53.612;7.278;2023-06-22T01:31:16;14.97;;;12.83;;
5995;SDS011;3026;53.612;7.278;2023-06-22T01:33:45;13.70;;;11.90;;
5995;SDS011;3026;53.612;7.278;2023-06-22T01:36:14;12.20;;;10.60;;
5995;SDS011;3026;53.612;7.278;2023-06-22T01:38:43;14.70;;;10.47;;
5995;SDS011;3026;53.612;7.278;2023-06-22T01:41:12;14.23;;;11.47;;
5995;SDS011;3026;53.612;7.278;2023-06-22T01:43:39;13.30;;;10.27;;
5995;SDS011;3026;53.612;7.278;2023-06-22T01:46:08;12.93;;;10.47;;
5995;SDS011;3026;53.612;7.278;2023-06-22T01:48:35;14.77;;;10.67;;
5995;SDS011;3026;53.612;7.278;2023-06-22T01:51:02;12.13;;;10.20;;
5995;SDS011;3026;53.612;7.278;2023-06-22T01:53:29;12.63;;;10.57;;
5995;SDS011;3026;53.612;7.278;2023-06-22T01:55:56;12.80;;;10.43;;
5995;SDS011;3026;53.612;7.278;2023-06-22T01:58:23;12.50;;;11.20;;
5995;SDS011;3026;53.612;7.278;2023-06-22T02:00:54;13.43;;;11.00;;
5995;SDS011;3026;53.612;7.278;2023-06-22T02:03:28;12.53;;;9.50;;
5995;SDS011;3026;53.612;7.278;2023-06-22T02:06:00;14.17;;;9.87;;
5995;SDS011;3026;53.612;7.278;2023-06-22T02:08:32;13.20;;;11.20;;
5995;SDS011;3026;53.612;7.278;2023-06-22T02:11:03;12.80;;;10.83;;
5995;SDS011;3026;53.612;7.278;2023-06-22T02:13:31;14.57;;;10.17;;
5995;SDS011;3026;53.612;7.278;2023-06-22T02:15:59;11.33;;;9.80;;
5995;SDS011;3026;53.612;7.278;2023-06-22T02:18:28;12.20;;;9.93;;
5995;SDS011;3026;53.612;7.278;2023-06-22T02:20:55;12.33;;;10.00;;
5995;SDS011;3026;53.612;7.278;2023-06-22T02:23:22;11.63;;;9.57;;
5995;SDS011;3026;53.612;7.278;2023-06-22T02:25:49;11.20;;;9.10;;
5995;SDS011;3026;53.612;7.278;2023-06-22T02:28:15;11.00;;;9.07;;
5995;SDS011;3026;53.612;7.278;2023-06-22T02:30:42;11.47;;;9.20;;
5995;SDS011;3026;53.612;7.278;2023-06-22T02:33:09;10.43;;;9.33;;
5995;SDS011;3026;53.612;7.278;2023-06-22T02:35:37;9.83;;;8.40;;
5995;SDS011;3026;53.612;7.278;2023-06-22T02:38:05;11.33;;;8.63;;
5995;SDS011;3026;53.612;7.278;2023-06-22T02:40:33;10.90;;;9.03;;
5995;SDS011;3026;53.612;7.278;2023-06-22T02:43:00;10.70;;;8.10;;
5995;SDS011;3026;53.612;7.278;2023-06-22T02:45:27;11.10;;;8.50;;
5995;SDS011;3026;53.612;7.278;2023-06-22T02:47:55;8.87;;;7.57;;
5995;SDS011;3026;53.612;7.278;2023-06-22T02:50:21;9.57;;;8.33;;
5995;SDS011;3026;53.612;7.278;2023-06-22T02:52:50;9.03;;;7.57;;
5995;SDS011;3026;53.612;7.278;2023-06-22T02:55:16;8.03;;;6.87;;
5995;SDS011;3026;53.612;7.278;2023-06-22T02:57:43;6.40;;;5.80;;
5995;SDS011;3026;53.612;7.278;2023-06-22T03:00:12;6.73;;;5.27;;
5995;SDS011;3026;53.612;7.278;2023-06-22T03:02:42;5.50;;;5.00;;
5995;SDS011;3026;53.612;7.278;2023-06-22T03:05:09;6.90;;;4.90;;
5995;SDS011;3026;53.612;7.278;2023-06-22T03:07:39;6.43;;;5.03;;
5995;SDS011;3026;53.612;7.278;2023-06-22T03:10:09;6.53;;;5.77;;
5995;SDS011;3026;53.612;7.278;2023-06-22T03:12:37;6.17;;;5.57;;
5995;SDS011;3026;53.612;7.278;2023-06-22T03:15:05;6.47;;;5.10;;
5995;SDS011;3026;53.612;7.278;2023-06-22T03:17:33;6.07;;;5.53;;
5995;SDS011;3026;53.612;7.278;2023-06-22T03:20:00;8.80;;;6.53;;
5995;SDS011;3026;53.612;7.278;2023-06-22T03:22:33;9.20;;;6.43;;
5995;SDS011;3026;53.612;7.278;2023-06-22T03:25:00;8.33;;;7.37;;
5995;SDS011;3026;53.612;7.278;2023-06-22T03:27:28;10.40;;;7.77;;
5995;SDS011;3026;53.612;7.278;2023-06-22T03:29:56;8.70;;;7.20;;
5995;SDS011;3026;53.612;7.278;2023-06-22T03:32:23;9.93;;;8.03;;
5995;SDS011;3026;53.612;7.278;2023-06-22T03:34:53;7.80;;;7.00;;
5995;SDS011;3026;53.612;7.278;2023-06-22T03:37:24;8.30;;;7.43;;
5995;SDS011;3026;53.612;7.278;2023-06-22T03:39:50;9.43;;;7.30;;
5995;SDS011;3026;53.612;7.278;2023-06-22T03:42:17;11.27;;;7.47;;
5995;SDS011;3026;53.612;7.278;2023-06-22T03:44:45;10.00;;;7.97;;
5995;SDS011;3026;53.612;7.278;2023-06-22T03:47:13;9.03;;;7.63;;
5995;SDS011;3026;53.612;7.278;2023-06-22T03:49:40;9.33;;;7.47;;
5995;SDS011;3026;53.612;7.278;2023-06-22T03:52:07;13.40;;;8.47;;
5995;SDS011;3026;53.612;7.278;2023-06-22T03:54:36;11.67;;;8.40;;
5995;SDS011;3026;53.612;7.278;2023-06-22T03:57:03;8.47;;;7.63;;
5995;SDS011;3026;53.612;7.278;2023-06-22T03:59:30;10.60;;;8.43;;
5995;SDS011;3026;53.612;7.278;2023-06-22T04:01:59;9.30;;;8.03;;
5995;SDS011;3026;53.612;7.278;2023-06-22T04:04:25;9.27;;;8.33;;
5995;SDS011;3026;53.612;7.278;2023-06-22T04:06:52;9.10;;;7.83;;
5995;SDS011;3026;53.612;7.278;2023-06-22T04:09:19;9.07;;;8.03;;
5995;SDS011;3026;53.612;7.278;2023-06-22T04:11:46;11.70;;;8.60;;
5995;SDS011;3026;53.612;7.278;2023-06-22T04:14:13;9.13;;;7.77;;
5995;SDS011;3026;53.612;7.278;2023-06-22T04:16:40;10.43;;;8.40;;
5995;SDS011;3026;53.612;7.278;2023-06-22T04:19:08;9.23;;;8.33;;
5995;SDS011;3026;53.612;7.278;2023-06-22T04:21:41;9.87;;;8.87;;
5995;SDS011;3026;53.612;7.278;2023-06-22T04:24:08;11.50;;;9.57;;
5995;SDS011;3026;53.612;7.278;2023-06-22T04:26:35;15.10;;;10.70;;
5995;SDS011;3026;53.612;7.278;2023-06-22T04:29:03;17.97;;;10.50;;
5995;SDS011;3026;53.612;7.278;2023-06-22T04:31:31;13.30;;;10.00;;
5995;SDS011;3026;53.612;7.278;2023-06-22T04:34:02;11.13;;;9.97;;
5995;SDS011;3026;53.612;7.278;2023-06-22T04:36:34;12.43;;;9.93;;
5995;SDS011;3026;53.612;7.278;2023-06-22T04:39:05;12.83;;;10.43;;
5995;SDS011;3026;53.612;7.278;2023-06-22T04:41:34;10.80;;;9.70;;
5995;SDS011;3026;53.612;7.278;2023-06-22T04:44:08;11.13;;;9.20;;
5995;SDS011;3026;53.612;7.278;2023-06-22T04:46:35;11.77;;;10.67;;
5995;SDS011;3026;53.612;7.278;2023-06-22T04:49:06;13.47;;;11.43;;
5995;SDS011;3026;53.612;7.278;2023-06-22T04:51:40;20.53;;;12.47;;
5995;SDS011;3026;53.612;7.278;2023-06-22T04:54:08;18.77;;;12.50;;
5995;SDS011;3026;53.612;7.278;2023-06-22T04:56:36;19.67;;;14.57;;
5995;SDS011;3026;53.612;7.278;2023-06-22T04:59:05;16.53;;;14.10;;
5995;SDS011;3026;53.612;7.278;2023-06-22T05:01:32;16.30;;;14.43;;
5995;SDS011;3026;53.612;7.278;2023-06-22T05:04:00;18.77;;;15.00;;
5995;SDS011;3026;53.612;7.278;2023-06-22T05:06:28;21.40;;;19.03;;
5995;SDS011;3026;53.612;7.278;2023-06-22T05:08:56;24.47;;;16.97;;
5995;SDS011;3026;53.612;7.278;2023-06-22T05:11:24;29.80;;;21.97;;
5995;SDS011;3026;53.612;7.278;2023-06-22T05:13:51;24.67;;;20.03;;
5995;SDS011;3026;53.612;7.278;2023-06-22T05:16:18;24.80;;;18.30;;
5995;SDS011;3026;53.612;7.278;2023-06-22T05:18:49;25.57;;;18.67;;
5995;SDS011;3026;53.612;7.278;2023-06-22T05:21:17;26.43;;;19.03;;
5995;SDS011;3026;53.612;7.278;2023-06-22T05:23:44;27.90;;;20.47;;
5995;SDS011;3026;53.612;7.278;2023-06-22T05:26:13;25.83;;;19.63;;
5995;SDS011;3026;53.612;7.278;2023-06-22T05:28:40;25.70;;;21.07;;
5995;SDS011;3026;53.612;7.278;2023-06-22T05:31:07;26.67;;;22.83;;
5995;SDS011;3026;53.612;7.278;2023-06-22T05:33:33;26.67;;;21.40;;
5995;SDS011;3026;53.612;7.278;2023-06-22T05:36:00;27.90;;;22.67;;
5995;SDS011;3026;53.612;7.278;2023-06-22T05:38:27;29.87;;;22.47;;
5995;SDS011;3026;53.612;7.278;2023-06-22T05:40:54;26.67;;;21.07;;
5995;SDS011;3026;53.612;7.278;2023-06-22T05:43:23;29.50;;;21.63;;
5995;SDS011;3026;53.612;7.278;2023-06-22T05:45:50;27.40;;;21.60;;
5995;SDS011;3026;53.612;7.278;2023-06-22T05:48:16;25.43;;;20.90;;
5995;SDS011;3026;53.612;7.278;2023-06-22T05:50:43;27.07;;;21.57;;
5995;SDS011;3026;53.612;7.278;2023-06-22T05:53:10;26.80;;;20.50;;
5995;SDS011;3026;53.612;7.278;2023-06-22T05:55:37;24.67;;;20.37;;
5995;SDS011;3026;53.612;7.278;2023-06-22T05:58:04;22.93;;;18.93;;
5995;SDS011;3026;53.612;7.278;2023-06-22T06:00:33;26.70;;;22.53;;
5995;SDS011;3026;53.612;7.278;2023-06-22T06:02:59;27.27;;;20.87;;
5995;SDS011;3026;53.612;7.278;2023-06-22T06:05:28;21.93;;;18.80;;
5995;SDS011;3026;53.612;7.278;2023-06-22T06:07:55;22.43;;;20.00;;
5995;SDS011;3026;53.612;7.278;2023-06-22T06:10:22;21.67;;;18.97;;
5995;SDS011;3026;53.612;7.278;2023-06-22T06:12:49;21.00;;;17.73;;
5995;SDS011;3026;53.612;7.278;2023-06-22T06:15:16;20.13;;;17.27;;
5995;SDS011;3026;53.612;7.278;2023-06-22T06:17:47;24.03;;;18.73;;
5995;SDS011;3026;53.612;7.278;2023-06-22T06:20:14;21.83;;;16.47;;
5995;SDS011;3026;53.612;7.278;2023-06-22T06:22:42;17.13;;;15.23;;
5995;SDS011;3026;53.612;7.278;2023-06-22T06:25:09;18.57;;;15.20;;
5995;SDS011;3026;53.612;7.278;2023-06-22T06:27:41;18.03;;;14.73;;
5995;SDS011;3026;53.612;7.278;2023-06-22T06:30:08;17.57;;;14.33;;
5995;SDS011;3026;53.612;7.278;2023-06-22T06:32:36;15.40;;;13.87;;
5995;SDS011;3026;53.612;7.278;2023-06-22T06:35:07;16.90;;;14.80;;
5995;SDS011;3026;53.612;7.278;2023-06-22T06:37:35;16.43;;;13.07;;
5995;SDS011;3026;53.612;7.278;2023-06-22T06:40:04;14.10;;;12.47;;
5995;SDS011;3026;53.612;7.278;2023-06-22T06:42:33;14.10;;;12.30;;
5995;SDS011;3026;53.612;7.278;2023-06-22T06:45:00;18.60;;;13.40;;
5995;SDS011;3026;53.612;7.278;2023-06-22T06:47:26;16.90;;;13.27;;
5995;SDS011;3026;53.612;7.278;2023-06-22T06:49:53;16.30;;;12.23;;
5995;SDS011;3026;53.612;7.278;2023-06-22T06:52:21;15.97;;;12.17;;
5995;SDS011;3026;53.612;7.278;2023-06-22T06:54:48;16.43;;;12.57;;
5995;SDS011;3026;53.612;7.278;2023-06-22T06:57:16;12.87;;;11.37;;
5995;SDS011;3026;53.612;7.278;2023-06-22T06:59:43;15.80;;;12.63;;
5995;SDS011;3026;53.612;7.278;2023-06-22T07:02:10;16.63;;;11.67;;
5995;SDS011;3026;53.612;7.278;2023-06-22T07:04:37;13.17;;;11.73;;
5995;SDS011;3026;53.612;7.278;2023-06-22T07:07:04;13.63;;;11.77;;
5995;SDS011;3026;53.612;7.278;2023-06-22T07:09:33;16.73;;;12.47;;
5995;SDS011;3026;53.612;7.278;2023-06-22T07:12:00;12.87;;;11.50;;
5995;SDS011;3026;53.612;7.278;2023-06-22T07:14:26;13.20;;;11.33;;
5995;SDS011;3026;53.612;7.278;2023-06-22T07:16:53;14.53;;;13.03;;
5995;SDS011;3026;53.612;7.278;2023-06-22T07:19:24;13.83;;;11.30;;
5995;SDS011;3026;53.612;7.278;2023-06-22T07:21:52;13.57;;;11.13;;
5995;SDS011;3026;53.612;7.278;2023-06-22T07:24:19;12.50;;;11.03;;
5995;SDS011;3026;53.612;7.278;2023-06-22T07:26:47;12.33;;;10.43;;
5995;SDS011;3026;53.612;7.278;2023-06-22T07:29:15;11.87;;;9.33;;
5995;SDS011;3026;53.612;7.278;2023-06-22T07:31:42;11.50;;;9.27;;
5995;SDS011;3026;53.612;7.278;2023-06-22T07:34:09;12.53;;;8.87;;
5995;SDS011;3026;53.612;7.278;2023-06-22T07:36:36;10.13;;;8.07;;
5995;SDS011;3026;53.612;7.278;2023-06-22T07:39:02;10.00;;;7.17;;
5995;SDS011;3026;53.612;7.278;2023-06-22T07:41:30;10.33;;;9.20;;
5995;SDS011;3026;53.612;7.278;2023-06-22T07:43:58;10.87;;;7.63;;
5995;SDS011;3026;53.612;7.278;2023-06-22T07:46:25;9.90;;;8.20;;
5995;SDS011;3026;53.612;7.278;2023-06-22T07:48:51;11.40;;;8.30;;
5995;SDS011;3026;53.612;7.278;2023-06-22T07:51:18;11.80;;;9.23;;
5995;SDS011;3026;53.612;7.278;2023-06-22T07:53:45;10.40;;;9.40;;
5995;SDS011;3026;53.612;7.278;2023-06-22T07:56:12;10.47;;;8.33;;
5995;SDS011;3026;53.612;7.278;2023-06-22T07:58:44;12.00;;;8.07;;
5995;SDS011;3026;53.612;7.278;2023-06-22T08:01:12;11.07;;;9.20;;
5995;SDS011;3026;53.612;7.278;2023-06-22T08:03:39;10.27;;;8.90;;
5995;SDS011;3026;53.612;7.278;2023-06-22T08:06:06;9.53;;;8.53;;
5995;SDS011;3026;53.612;7.278;2023-06-22T08:08:34;11.77;;;8.60;;
5995;SDS011;3026;53.612;7.278;2023-06-22T08:11:01;9.30;;;8.37;;
5995;SDS011;3026;53.612;7.278;2023-06-22T08:13:27;14.40;;;9.47;;
5995;SDS011;3026;53.612;7.278;2023-06-22T08:15:54;10.10;;;8.63;;
5995;SDS011;3026;53.612;7.278;2023-06-22T08:18:23;11.13;;;9.20;;
5995;SDS011;3026;53.612;7.278;2023-06-22T08:20:49;9.60;;;8.60;;
5995;SDS011;3026;53.612;7.278;2023-06-22T08:23:16;10.20;;;8.40;;
5995;SDS011;3026;53.612;7.278;2023-06-22T08:25:43;10.82;;;8.32;;
5995;SDS011;3026;53.612;7.278;2023-06-22T08:28:10;11.05;;;9.07;;
5995;SDS011;3026;53.612;7.278;2023-06-22T08:30:38;10.52;;;8.02;;
5995;SDS011;3026;53.612;7.278;2023-06-22T08:33:05;13.18;;;9.15;;
5995;SDS011;3026;53.612;7.278;2023-06-22T08:35:33;9.27;;;8.30;;
5995;SDS011;3026;53.612;7.278;2023-06-22T08:38:00;8.88;;;7.63;;
5995;SDS011;3026;53.612;7.278;2023-06-22T08:40:27;9.18;;;8.05;;
5995;SDS011;3026;53.612;7.278;2023-06-22T08:42:54;10.88;;;8.75;;
5995;SDS011;3026;53.612;7.278;2023-06-22T08:45:21;8.38;;;7.55;;
5995;SDS011;3026;53.612;7.278;2023-06-22T08:47:48;8.98;;;7.82;;
5995;SDS011;3026;53.612;7.278;2023-06-22T08:50:15;9.63;;;7.30;;
5995;SDS011;3026;53.612;7.278;2023-06-22T08:52:43;8.10;;;7.10;;
5995;SDS011;3026;53.612;7.278;2023-06-22T08:55:10;9.60;;;8.45;;
5995;SDS011;3026;53.612;7.278;2023-06-22T08:57:37;11.32;;;8.20;;
5995;SDS011;3026;53.612;7.278;2023-06-22T09:00:05;8.20;;;7.35;;
5995;SDS011;3026;53.612;7.278;2023-06-22T09:02:41;10.63;;;8.10;;
5995;SDS011;3026;53.612;7.278;2023-06-22T09:05:08;10.73;;;9.10;;
5995;SDS011;3026;53.612;7.278;2023-06-22T09:07:35;10.77;;;7.78;;
5995;SDS011;3026;53.612;7.278;2023-06-22T09:10:03;8.75;;;7.65;;
5995;SDS011;3026;53.612;7.278;2023-06-22T09:12:31;8.30;;;7.22;;
5995;SDS011;3026;53.612;7.278;2023-06-22T09:14:58;11.80;;;8.40;;
5995;SDS011;3026;53.612;7.278;2023-06-22T09:17:26;8.13;;;7.32;;
5995;SDS011;3026;53.612;7.278;2023-06-22T09:19:53;10.35;;;6.85;;
5995;SDS011;3026;53.612;7.278;2023-06-22T09:22:20;7.05;;;6.40;;
5995;SDS011;3026;53.612;7.278;2023-06-22T09:24:47;9.65;;;7.47;;
5995;SDS011;3026;53.612;7.278;2023-06-22T09:27:15;8.18;;;7.38;;
5995;SDS011;3026;53.612;7.278;2023-06-22T09:29:42;9.93;;;7.50;;
5995;SDS011;3026;53.612;7.278;2023-06-22T09:32:09;10.20;;;8.10;;
5995;SDS011;3026;53.612;7.278;2023-06-22T09:34:35;9.35;;;7.38;;
5995;SDS011;3026;53.612;7.278;2023-06-22T09:37:02;7.72;;;6.80;;
5995;SDS011;3026;53.612;7.278;2023-06-22T09:39:29;8.45;;;7.47;;
5995;SDS011;3026;53.612;7.278;2023-06-22T09:41:57;8.73;;;6.90;;
5995;SDS011;3026;53.612;7.278;2023-06-22T09:44:25;7.53;;;6.72;;
5995;SDS011;3026;53.612;7.278;2023-06-22T09:46:52;8.48;;;7.45;;
5995;SDS011;3026;53.612;7.278;2023-06-22T09:49:19;9.50;;;7.40;;
5995;SDS011;3026;53.612;7.278;2023-06-22T09:51:46;8.57;;;6.82;;
5995;SDS011;3026;53.612;7.278;2023-06-22T09:54:16;9.85;;;7.28;;
5995;SDS011;3026;53.612;7.278;2023-06-22T09:56:42;9.38;;;6.70;;
5995;SDS011;3026;53.612;7.278;2023-06-22T09:59:09;7.38;;;6.53;;
5995;SDS011;3026;53.612;7.278;2023-06-22T10:01:38;7.45;;;6.38;;
5995;SDS011;3026;53.612;7.278;2023-06-22T10:04:05;8.68;;;7.13;;
5995;SDS011;3026;53.612;7.278;2023-06-22T10:06:32;8.48;;;7.50;;
5995;SDS011;3026;53.612;7.278;2023-06-22T10:08:58;7.70;;;6.82;;
5995;SDS011;3026;53.612;7.278;2023-06-22T10:11:25;8.23;;;7.38;;
5995;SDS011;3026;53.612;7.278;2023-06-22T10:13:55;7.60;;;6.03;;
5995;SDS011;3026;53.612;7.278;2023-06-22T10:16:23;8.50;;;7.35;;
5995;SDS011;3026;53.612;7.278;2023-06-22T10:18:57;8.73;;;6.65;;
5995;SDS011;3026;53.612;7.278;2023-06-22T10:21:24;7.88;;;7.13;;
5995;SDS011;3026;53.612;7.278;2023-06-22T10:23:52;7.30;;;6.40;;
5995;SDS011;3026;53.612;7.278;2023-06-22T10:26:19;7.25;;;6.55;;
5995;SDS011;3026;53.612;7.278;2023-06-22T10:28:46;10.02;;;6.50;;
5995;SDS011;3026;53.612;7.278;2023-06-22T10:31:13;8.20;;;6.32;;
5995;SDS011;3026;53.612;7.278;2023-06-22T10:33:41;6.00;;;5.40;;
5995;SDS011;3026;53.612;7.278;2023-06-22T10:36:10;7.55;;;5.68;;
5995;SDS011;3026;53.612;7.278;2023-06-22T10:38:37;7.55;;;6.53;;
5995;SDS011;3026;53.612;7.278;2023-06-22T10:41:04;8.57;;;6.72;;
5995;SDS011;3026;53.612;7.278;2023-06-22T10:43:31;5.65;;;5.15;;
5995;SDS011;3026;53.612;7.278;2023-06-22T10:45:58;8.35;;;5.40;;
5995;SDS011;3026;53.612;7.278;2023-06-22T10:48:25;5.53;;;5.03;;
5995;SDS011;3026;53.612;7.278;2023-06-22T10:50:51;6.95;;;4.95;;
5995;SDS011;3026;53.612;7.278;2023-06-22T10:53:21;5.85;;;5.03;;
5995;SDS011;3026;53.612;7.278;2023-06-22T10:55:48;7.20;;;4.10;;
5995;SDS011;3026;53.612;7.278;2023-06-22T10:58:16;5.35;;;4.10;;
5995;SDS011;3026;53.612;7.278;2023-06-22T11:00:43;4.43;;;3.53;;
5995;SDS011;3026;53.612;7.278;2023-06-22T11:03:11;5.00;;;3.78;;
5995;SDS011;3026;53.612;7.278;2023-06-22T11:05:39;6.63;;;4.43;;
5995;SDS011;3026;53.612;7.278;2023-06-22T11:08:06;4.80;;;4.30;;
5995;SDS011;3026;53.612;7.278;2023-06-22T11:10:34;5.07;;;3.85;;
5995;SDS011;3026;53.612;7.278;2023-06-22T11:13:01;5.78;;;3.90;;
5995;SDS011;3026;53.612;7.278;2023-06-22T11:15:29;4.18;;;3.78;;
5995;SDS011;3026;53.612;7.278;2023-06-22T11:17:56;5.18;;;4.10;;
5995;SDS011;3026;53.612;7.278;2023-06-22T11:20:23;4.78;;;3.15;;
5995;SDS011;3026;53.612;7.278;2023-06-22T11:22:49;4.03;;;3.63;;
5995;SDS011;3026;53.612;7.278;2023-06-22T11:25:16;4.72;;;3.40;;
5995;SDS011;3026;53.612;7.278;2023-06-22T11:27:44;4.53;;;3.10;;
5995;SDS011;3026;53.612;7.278;2023-06-22T11:30:11;3.95;;;3.03;;
5995;SDS011;3026;53.612;7.278;2023-06-22T11:32:38;4.07;;;3.67;;
5995;SDS011;3026;53.612;7.278;2023-06-22T11:35:05;3.83;;;3.20;;
5995;SDS011;3026;53.612;7.278;2023-06-22T11:37:32;5.20;;;4.32;;
5995;SDS011;3026;53.612;7.278;2023-06-22T11:39:59;6.10;;;4.28;;
5995;SDS011;3026;53.612;7.278;2023-06-22T11:42:26;4.63;;;4.07;;
5995;SDS011;3026;53.612;7.278;2023-06-22T11:44:54;8.35;;;4.00;;
5995;SDS011;3026;53.612;7.278;2023-06-22T11:47:21;5.63;;;4.80;;
5995;SDS011;3026;53.612;7.278;2023-06-22T11:49:48;5.65;;;4.75;;
5995;SDS011;3026;53.612;7.278;2023-06-22T11:52:15;10.10;;;5.78;;
5995;SDS011;3026;53.612;7.278;2023-06-22T11:54:42;5.95;;;5.22;;
5995;SDS011;3026;53.612;7.278;2023-06-22T11:57:10;6.38;;;5.00;;
5995;SDS011;3026;53.612;7.278;2023-06-22T11:59:37;6.50;;;5.00;;
5995;SDS011;3026;53.612;7.278;2023-06-22T12:02:06;4.90;;;4.47;;
5995;SDS011;3026;53.612;7.278;2023-06-22T12:04:34;7.13;;;4.60;;
5995;SDS011;3026;53.612;7.278;2023-06-22T12:07:01;4.85;;;4.35;;
5995;SDS011;3026;53.612;7.278;2023-06-22T12:09:28;5.25;;;3.78;;
5995;SDS011;3026;53.612;7.278;2023-06-22T12:11:55;4.53;;;4.05;;
5995;SDS011;3026;53.612;7.278;2023-06-22T12:14:22;5.32;;;3.90;;
5995;SDS011;3026;53.612;7.278;2023-06-22T12:16:49;4.63;;;3.67;;
5995;SDS011;3026;53.612;7.278;2023-06-22T12:19:17;6.38;;;3.80;;
5995;SDS011;3026;53.612;7.278;2023-06-22T12:21:44;4.80;;;3.17;;
5995;SDS011;3026;53.612;7.278;2023-06-22T12:24:11;4.10;;;3.00;;
5995;SDS011;3026;53.612;7.278;2023-06-22T12:26:38;3.85;;;3.15;;
5995;SDS011;3026;53.612;7.278;2023-06-22T12:29:05;6.43;;;3.42;;
5995;SDS011;3026;53.612;7.278;2023-06-22T12:31:32;5.95;;;3.80;;
5995;SDS011;3026;53.612;7.278;2023-06-22T12:33:58;3.55;;;3.25;;
5995;SDS011;3026;53.612;7.278;2023-06-22T12:36:26;3.50;;;3.20;;
5995;SDS011;3026;53.612;7.278;2023-06-22T12:38:53;5.43;;;3.60;;
5995;SDS011;3026;53.612;7.278;2023-06-22T12:41:20;3.30;;;3.00;;
5995;SDS011;3026;53.612;7.278;2023-06-22T12:43:47;5.15;;;3.65;;
5995;SDS011;3026;53.612;7.278;2023-06-22T12:46:14;3.78;;;3.08;;
5995;SDS011;3026;53.612;7.278;2023-06-22T12:48:40;3.65;;;2.90;;
5995;SDS011;3026;53.612;7.278;2023-06-22T12:51:07;2.72;;;2.45;;
5995;SDS011;3026;53.612;7.278;2023-06-22T12:53:36;5.20;;;2.95;;
5995;SDS011;3026;53.612;7.278;2023-06-22T12:56:03;3.65;;;3.15;;
5995;SDS011;3026;53.612;7.278;2023-06-22T12:58:30;2.70;;;2.40;;
5995;SDS011;3026;53.612;7.278;2023-06-22T13:00:57;3.65;;;2.78;;
5995;SDS011;3026;53.612;7.278;2023-06-22T13:03:23;3.45;;;3.03;;
5995;SDS011;3026;53.612;7.278;2023-06-22T13:05:52;3.72;;;2.80;;
5995;SDS011;3026;53.612;7.278;2023-06-22T13:08:19;2.95;;;2.63;;
5995;SDS011;3026;53.612;7.278;2023-06-22T13:10:48;2.65;;;2.22;;
5995;SDS011;3026;53.612;7.278;2023-06-22T13:13:15;3.38;;;2.80;;
5995;SDS011;3026;53.612;7.278;2023-06-22T13:15:41;3.00;;;2.67;;
5995;SDS011;3026;53.612;7.278;2023-06-22T13:18:08;2.75;;;2.42;;
5995;SDS011;3026;53.612;7.278;2023-06-22T13:20:35;3.28;;;2.50;;
5995;SDS011;3026;53.612;7.278;2023-06-22T13:23:02;3.25;;;2.40;;
5995;SDS011;3026;53.612;7.278;2023-06-22T13:25:28;3.90;;;2.38;;
5995;SDS011;3026;53.612;7.278;2023-06-22T13:27:57;2.00;;;1.90;;
5995;SDS011;3026;53.612;7.278;2023-06-22T13:30:24;2.38;;;2.10;;
5995;SDS011;3026;53.612;7.278;2023-06-22T13:32:50;2.95;;;2.33;;
5995;SDS011;3026;53.612;7.278;2023-06-22T13:35:17;2.42;;;2.13;;
5995;SDS011;3026;53.612;7.278;2023-06-22T13:37:44;2.70;;;2.28;;
5995;SDS011;3026;53.612;7.278;2023-06-22T13:40:11;2.83;;;2.20;;
5995;SDS011;3026;53.612;7.278;2023-06-22T13:42:38;2.30;;;2.08;;
5995;SDS011;3026;53.612;7.278;2023-06-22T13:45:07;3.55;;;2.28;;
5995;SDS011;3026;53.612;7.278;2023-06-22T13:47:34;2.13;;;1.92;;
5995;SDS011;3026;53.612;7.278;2023-06-22T13:50:01;2.38;;;1.75;;
5995;SDS011;3026;53.612;7.278;2023-06-22T13:52:28;3.55;;;1.80;;
5995;SDS011;3026;53.612;7.278;2023-06-22T13:54:55;2.08;;;1.70;;
5995;SDS011;3026;53.612;7.278;2023-06-22T13:57:21;2.30;;;1.70;;
5995;SDS011;3026;53.612;7.278;2023-06-22T13:59:48;1.83;;;1.55;;
5995;SDS011;3026;53.612;7.278;2023-06-22T14:02:16;1.85;;;1.60;;
5995;SDS011;3026;53.612;7.278;2023-06-22T14:04:43;2.13;;;1.50;;
5995;SDS011;3026;53.612;7.278;2023-06-22T14:07:10;2.22;;;1.60;;
5995;SDS011;3026;53.612;7.278;2023-06-22T14:09:37;2.70;;;1.27;;
5995;SDS011;3026;53.612;7.278;2023-06-22T14:12:04;2.17;;;1.58;;
5995;SDS011;3026;53.612;7.278;2023-06-22T14:14:31;1.45;;;1.35;;
5995;SDS011;3026;53.612;7.278;2023-06-22T14:16:59;3.50;;;2.40;;
5995;SDS011;3026;53.612;7.278;2023-06-22T14:19:27;2.70;;;1.80;;
5995;SDS011;3026;53.612;7.278;2023-06-22T14:21:54;1.73;;;1.40;;
5995;SDS011;3026;53.612;7.278;2023-06-22T14:24:21;2.88;;;1.70;;
5995;SDS011;3026;53.612;7.278;2023-06-22T14:26:48;1.30;;;1.20;;
5995;SDS011;3026;53.612;7.278;2023-06-22T14:29:15;2.35;;;1.85;;
5995;SDS011;3026;53.612;7.278;2023-06-22T14:31:44;3.25;;;1.70;;
5995;SDS011;3026;53.612;7.278;2023-06-22T14:34:11;2.28;;;1.75;;
5995;SDS011;3026;53.612;7.278;2023-06-22T14:36:39;1.63;;;1.52;;
5995;SDS011;3026;53.612;7.278;2023-06-22T14:39:06;2.78;;;1.55;;
5995;SDS011;3026;53.612;7.278;2023-06-22T14:41:33;1.85;;;1.55;;
5995;SDS011;3026;53.612;7.278;2023-06-22T14:44:00;1.52;;;1.42;;
5995;SDS011;3026;53.612;7.278;2023-06-22T14:46:26;1.73;;;1.60;;
5995;SDS011;3026;53.612;7.278;2023-06-22T14:48:53;2.97;;;1.60;;
5995;SDS011;3026;53.612;7.278;2023-06-22T14:51:20;2.00;;;1.42;;
5995;SDS011;3026;53.612;7.278;2023-06-22T14:53:48;1.73;;;1.63;;
5995;SDS011;3026;53.612;7.278;2023-06-22T14:56:15;1.70;;;1.40;;
5995;SDS011;3026;53.612;7.278;2023-06-22T14:58:41;3.53;;;1.60;;
5995;SDS011;3026;53.612;7.278;2023-06-22T15:01:10;1.85;;;1.50;;
5995;SDS011;3026;53.612;7.278;2023-06-22T15:03:37;1.80;;;1.70;;
5995;SDS011;3026;53.612;7.278;2023-06-22T15:06:04;3.47;;;3.10;;
5995;SDS011;3026;53.612;7.278;2023-06-22T15:08:32;2.90;;;2.00;;